Time;durP1;ratioP1;P1;durP2;ratioP2;P2;SDS_P1;SDS_P2;PMS_P1;PMS_P2;Temp;Humidity;BMP_temperature;BMP_pressure;BME280_temperature;BME280_humidity;BME280_pressure;Samples;Min_cycle;Max_cycle;Signal;HPM_P1;HPM_P2
2021/06/17 00:00:20;;;;;;;7.30;1.97;;;;;;;19.79;67.69;101082.06;5036489;28;20431;-69
2021/06/17 00:02:48;;;;;;;2.00;1.60;;;;;;;19.84;68.90;101087.31;5036573;28;20419;-68
2021/06/17 00:05:17;;;;;;;2.23;1.50;;;;;;;19.87;69.58;101086.59;5036410;28;20450;-68
2021/06/17 00:07:44;;;;;;;1.93;1.57;;;;;;;19.90;69.77;101087.84;5036341;28;20463;-69
2021/06/17 00:10:14;;;;;;;1.57;1.47;;;;;;;19.93;69.16;101087.16;5036750;28;20439;-68
2021/06/17 00:12:41;;;;;;;3.30;2.07;;;;;;;19.95;69.48;101086.78;5036403;28;20482;-68
2021/06/17 00:15:10;;;;;;;2.90;1.70;;;;;;;19.98;69.03;101081.41;5036031;28;20818;-68
2021/06/17 00:17:38;;;;;;;2.60;2.00;;;;;;;20.01;68.70;101072.44;5035573;28;20470;-68
2021/06/17 00:20:07;;;;;;;2.53;1.90;;;;;;;20.04;69.05;101079.97;5036092;28;20514;-69
2021/06/17 00:22:33;;;;;;;2.03;1.83;;;;;;;20.09;68.80;101078.91;5036135;28;20451;-69
2021/06/17 00:24:59;;;;;;;3.10;1.90;;;;;;;20.11;69.25;101084.88;5035841;28;20831;-68
2021/06/17 00:27:26;;;;;;;2.57;2.10;;;;;;;20.15;69.23;101080.28;5035988;28;20442;-69
2021/06/17 00:29:53;;;;;;;1.90;1.60;;;;;;;20.19;69.99;101080.34;5036097;28;20562;-69
2021/06/17 00:32:20;;;;;;;4.53;2.50;;;;;;;20.21;70.16;101080.78;5035874;28;20490;-69
2021/06/17 00:34:47;;;;;;;2.67;1.70;;;;;;;20.24;69.75;101077.34;5035864;28;20451;-68
2021/06/17 00:37:14;;;;;;;2.47;1.57;;;;;;;20.26;70.29;101080.53;5034679;28;20439;-69
2021/06/17 00:39:41;;;;;;;4.47;1.93;;;;;;;20.26;70.11;101086.03;5035693;28;20459;-69
2021/06/17 00:42:07;;;;;;;2.03;1.70;;;;;;;20.27;71.03;101076.63;5035797;28;20804;-69
2021/06/17 00:44:34;;;;;;;3.40;2.43;;;;;;;20.28;70.91;101076.28;5035744;28;20443;-68
2021/06/17 00:47:01;;;;;;;6.27;2.77;;;;;;;20.30;70.77;101079.47;5035966;28;20447;-69
2021/06/17 00:49:28;;;;;;;2.90;2.30;;;;;;;20.32;70.80;101081.84;5035623;28;20475;-69
2021/06/17 00:51:56;;;;;;;5.60;1.80;;;;;;;20.32;70.94;101079.94;5033926;28;20510;-70
2021/06/17 00:54:32;;;;;;;5.60;2.27;;;;;;;20.34;70.90;101076.81;5035810;28;20438;-68
2021/06/17 00:56:59;;;;;;;2.77;2.17;;;;;;;20.35;71.57;101076.44;5035499;28;20439;-69
2021/06/17 00:59:25;;;;;;;2.47;2.23;;;;;;;20.37;71.85;101076.91;5035000;28;20475;-69
2021/06/17 01:01:52;;;;;;;3.00;2.20;;;;;;;20.36;71.34;101080.81;5035407;28;20466;-69
2021/06/17 01:04:18;;;;;;;2.20;1.73;;;;;;;20.34;71.97;101069.34;5035352;28;20852;-68
2021/06/17 01:06:45;;;;;;;4.43;2.40;;;;;;;20.35;71.82;101065.44;5035388;28;20469;-69
2021/06/17 01:09:20;;;;;;;3.83;2.40;;;;;;;20.36;72.70;101074.50;5035276;28;20934;-68
2021/06/17 01:11:55;;;;;;;2.97;2.40;;;;;;;20.38;72.89;101070.25;5035257;28;20456;-68
2021/06/17 01:14:24;;;;;;;4.10;2.60;;;;;;;20.38;72.82;101063.94;5035078;28;20463;-67
2021/06/17 01:16:58;;;;;;;4.53;2.23;;;;;;;20.39;73.19;101066.31;5035116;28;20462;-69
2021/06/17 01:19:35;;;;;;;3.87;3.00;;;;;;;20.37;73.56;101056.84;5035010;28;20894;-69
2021/06/17 01:22:09;;;;;;;2.67;2.23;;;;;;;20.38;73.52;101066.69;5035340;28;20470;-68
2021/06/17 01:25:07;;;;;;;2.60;2.40;;;;;;;20.38;73.83;101061.97;5035005;28;20439;-68
2021/06/17 01:27:53;;;;;;;3.53;2.50;;;;;;;20.40;73.67;101062.41;5034813;28;20439;-68
2021/06/17 01:30:22;;;;;;;2.50;2.30;;;;;;;20.41;74.39;101061.28;5034018;28;20462;-68
2021/06/17 01:32:54;;;;;;;3.20;2.83;;;;;;;20.45;74.19;101060.53;5034710;28;20479;-68
2021/06/17 01:35:23;;;;;;;3.10;2.70;;;;;;;20.47;74.19;101063.75;5034746;28;20423;-68
2021/06/17 01:37:53;;;;;;;3.63;2.90;;;;;;;20.47;74.58;101055.50;5034332;28;20470;-68
2021/06/17 01:40:20;;;;;;;4.30;3.40;;;;;;;20.46;74.18;101053.91;5034605;28;20438;-67
2021/06/17 01:42:47;;;;;;;5.83;3.10;;;;;;;20.47;74.46;101052.75;5034711;28;20447;-68
2021/06/17 01:45:14;;;;;;;3.40;2.60;;;;;;;20.48;74.93;101052.41;5034247;28;20933;-68
2021/06/17 01:47:43;;;;;;;4.63;2.80;;;;;;;20.42;75.50;101048.31;5034114;28;20567;-69
2021/06/17 01:50:13;;;;;;;4.80;3.33;;;;;;;20.44;75.08;101054.25;5034467;28;20446;-68
2021/06/17 01:52:40;;;;;;;7.07;3.60;;;;;;;20.42;75.20;101051.88;5034364;28;20491;-69
2021/06/17 01:55:10;;;;;;;6.10;3.23;;;;;;;20.46;75.73;101053.91;5034026;28;20963;-69
2021/06/17 01:57:38;;;;;;;4.33;2.93;;;;;;;20.48;75.87;101049.66;5034156;28;20451;-69
2021/06/17 02:00:06;;;;;;;3.80;2.93;;;;;;;20.49;75.50;101051.25;5059391;22;20507;-70
2021/06/17 02:02:33;;;;;;;4.43;3.37;;;;;;;20.49;76.04;101044.94;5034222;28;20955;-70
2021/06/17 02:05:02;;;;;;;4.27;3.20;;;;;;;20.46;76.59;101053.91;5034201;28;20447;-70
2021/06/17 02:07:28;;;;;;;4.53;3.20;;;;;;;20.49;75.85;101050.47;5034049;28;20445;-70
2021/06/17 02:09:56;;;;;;;3.30;2.70;;;;;;;20.48;76.53;101046.13;5034013;28;20475;-70
2021/06/17 02:12:23;;;;;;;5.77;3.20;;;;;;;20.47;76.49;101041.75;5033993;28;20446;-70
2021/06/17 02:14:51;;;;;;;20.27;3.90;;;;;;;20.52;76.76;101038.75;5033533;28;20458;-70
2021/06/17 02:17:19;;;;;;;5.17;3.40;;;;;;;20.56;76.46;101034.13;5033085;28;20440;-70
2021/06/17 02:19:48;;;;;;;5.20;3.90;;;;;;;20.56;76.84;101034.13;5034113;28;20455;-70
2021/06/17 02:22:18;;;;;;;6.10;3.10;;;;;;;20.56;76.42;101034.13;5033841;28;20447;-70
2021/06/17 02:24:48;;;;;;;4.60;3.40;;;;;;;20.59;76.65;101022.41;5033803;28;20446;-71
2021/06/17 02:27:18;;;;;;;6.00;4.20;;;;;;;20.60;76.94;101029.50;5033566;28;20908;-71
2021/06/17 02:29:47;;;;;;;5.77;3.83;;;;;;;20.61;77.22;101026.38;5033638;28;20459;-71
2021/06/17 02:32:18;;;;;;;6.03;4.13;;;;;;;20.65;77.06;101032.75;5033683;28;20450;-71
2021/06/17 02:34:46;;;;;;;3.47;3.17;;;;;;;20.67;77.09;101026.88;5033640;28;20470;-71
2021/06/17 02:37:14;;;;;;;4.43;3.50;;;;;;;20.70;76.92;101028.13;5033302;28;20963;-71
2021/06/17 02:39:43;;;;;;;4.43;3.50;;;;;;;20.69;77.25;101019.09;5033515;28;20486;-71
2021/06/17 02:42:11;;;;;;;5.53;3.10;;;;;;;20.68;76.99;101009.25;5033522;28;20443;-71
2021/06/17 02:44:38;;;;;;;6.27;4.37;;;;;;;20.70;77.20;101015.16;5033553;28;20809;-71
2021/06/17 02:47:05;;;;;;;4.90;4.40;;;;;;;20.66;77.25;101012.34;5033495;28;20450;-71
2021/06/17 02:49:32;;;;;;;8.50;5.07;;;;;;;20.69;77.61;101012.78;5033362;28;20521;-71
2021/06/17 02:51:59;;;;;;;5.97;4.10;;;;;;;20.68;77.94;101014.75;5033356;28;20434;-71
2021/06/17 02:54:25;;;;;;;4.17;3.77;;;;;;;20.64;78.04;101020.16;5033321;28;20479;-71
2021/06/17 02:57:00;;;;;;;4.17;3.40;;;;;;;20.65;78.00;101016.25;5033319;28;20443;-71
2021/06/17 02:59:39;;;;;;;5.87;4.07;;;;;;;20.69;77.80;101021.03;5032357;28;20470;-71
2021/06/17 03:02:10;;;;;;;5.20;4.20;;;;;;;20.69;77.85;101016.34;5033328;28;20443;-71
2021/06/17 03:04:45;;;;;;;5.03;4.47;;;;;;;20.69;78.07;101019.09;5033079;28;20430;-71
2021/06/17 03:07:21;;;;;;;5.30;4.10;;;;;;;20.69;78.41;101026.56;5033251;28;20434;-71
2021/06/17 03:09:51;;;;;;;5.67;4.17;;;;;;;20.66;78.49;101019.78;5033394;28;20834;-71
2021/06/17 03:12:23;;;;;;;4.57;3.70;;;;;;;20.69;78.21;101021.84;5033275;28;20427;-71
2021/06/17 03:14:51;;;;;;;8.83;4.77;;;;;;;20.72;77.98;101023.88;5035491;28;20968;-71
2021/06/17 03:17:20;;;;;;;5.97;4.43;;;;;;;20.72;78.57;101012.88;5037243;28;20431;-72
2021/06/17 03:19:49;;;;;;;4.80;4.30;;;;;;;20.71;78.59;101018.72;5032975;28;20582;-72
2021/06/17 03:22:16;;;;;;;4.20;3.50;;;;;;;20.70;78.33;101012.41;5033071;28;20450;-72
2021/06/17 03:24:45;;;;;;;8.20;4.37;;;;;;;20.74;78.77;101016.03;5033037;28;20443;-72
2021/06/17 03:27:13;;;;;;;5.70;3.73;;;;;;;20.76;78.79;101021.19;5033007;28;20450;-71
2021/06/17 03:29:46;;;;;;;5.63;3.67;;;;;;;20.76;78.19;101013.75;5032961;28;20467;-72
2021/06/17 03:32:13;;;;;;;6.50;4.60;;;;;;;20.74;79.04;101010.53;5033035;28;20432;-72
2021/06/17 03:34:42;;;;;;;5.77;4.00;;;;;;;20.74;78.39;101018.81;5032888;28;20487;-72
2021/06/17 03:37:11;;;;;;;7.00;4.60;;;;;;;20.77;78.38;101017.28;5032932;28;20458;-72
2021/06/17 03:39:38;;;;;;;4.40;3.80;;;;;;;20.76;78.91;101010.16;5032826;28;21087;-72
2021/06/17 03:42:07;;;;;;;6.00;4.20;;;;;;;20.79;79.13;101026.78;5032869;28;20446;-72
2021/06/17 03:44:35;;;;;;;7.40;4.47;;;;;;;20.81;78.79;101021.72;5032862;28;20440;-72
2021/06/17 03:47:05;;;;;;;5.23;4.37;;;;;;;20.82;78.97;101014.25;5032842;28;20440;-72
2021/06/17 03:49:32;;;;;;;5.10;4.30;;;;;;;20.83;79.02;101013.88;5032783;28;20466;-72
2021/06/17 03:52:01;;;;;;;8.57;4.10;;;;;;;20.85;78.69;101021.78;5032498;28;20448;-72
2021/06/17 03:54:27;;;;;;;4.73;4.10;;;;;;;20.87;78.42;101014.75;5032351;28;20491;-74
2021/06/17 03:56:55;;;;;;;5.57;4.40;;;;;;;20.90;79.03;101016.81;5032526;28;20951;-70
2021/06/17 03:59:25;;;;;;;8.47;5.53;;;;;;;20.91;78.62;101012.88;5032244;28;20483;-69
2021/06/17 04:01:52;;;;;;;5.60;4.90;;;;;;;20.92;78.81;101020.00;5032648;28;20435;-69
2021/06/17 04:04:20;;;;;;;7.67;4.47;;;;;;;20.99;78.80;101011.09;5032472;28;20831;-69
2021/06/17 04:06:52;;;;;;;4.80;3.77;;;;;;;21.04;78.98;101021.03;5032418;28;20967;-72
2021/06/17 04:09:25;;;;;;;6.77;4.83;;;;;;;21.05;78.61;101012.38;5032601;28;20466;-73
2021/06/17 04:11:53;;;;;;;4.60;4.20;;;;;;;21.07;78.47;101017.53;5036019;28;20427;-72
2021/06/17 04:14:21;;;;;;;7.80;4.73;;;;;;;21.07;79.18;101017.53;5036246;28;20483;-73
2021/06/17 04:16:51;;;;;;;7.40;5.10;;;;;;;21.11;78.48;101008.19;5036187;28;20447;-72
2021/06/17 04:19:19;;;;;;;6.40;4.80;;;;;;;21.15;78.70;101009.06;5036414;28;20470;-73
2021/06/17 04:21:49;;;;;;;6.53;4.80;;;;;;;21.21;78.99;101015.09;5036138;28;20443;-73
2021/06/17 04:24:19;;;;;;;7.87;4.87;;;;;;;21.21;78.74;101017.84;5036169;28;20420;-73
2021/06/17 04:26:45;;;;;;;7.00;5.30;;;;;;;21.26;79.10;101017.56;5036047;28;20439;-73
2021/06/17 04:29:13;;;;;;;6.80;4.60;;;;;;;21.28;78.80;101017.97;5035945;28;20834;-73
2021/06/17 04:31:40;;;;;;;8.53;5.10;;;;;;;21.32;77.98;101018.06;5035993;28;20443;-73
2021/06/17 04:34:06;;;;;;;5.27;4.37;;;;;;;21.40;78.09;101023.38;5035538;28;20479;-73
2021/06/17 04:36:33;;;;;;;5.30;4.13;;;;;;;21.39;78.17;101021.78;5035923;28;20447;-72
2021/06/17 04:39:01;;;;;;;5.77;4.83;;;;;;;21.45;78.60;101029.75;5035811;28;20471;-73
2021/06/17 04:41:27;;;;;;;8.10;4.77;;;;;;;21.47;78.61;101030.16;5035729;28;20450;-73
2021/06/17 04:43:54;;;;;;;6.67;5.20;;;;;;;21.52;78.35;101030.69;5035812;28;20450;-73
2021/06/17 04:46:22;;;;;;;5.73;4.30;;;;;;;21.57;78.27;101037.88;5035427;28;20955;-73
2021/06/17 04:48:50;;;;;;;6.87;4.70;;;;;;;21.63;77.59;101034.44;5035591;28;20459;-73
2021/06/17 04:51:18;;;;;;;9.80;5.53;;;;;;;21.71;77.82;101046.41;5035304;28;20546;-73
2021/06/17 04:53:44;;;;;;;7.70;5.53;;;;;;;21.76;77.47;101042.56;5035180;28;21023;-73
2021/06/17 04:56:13;;;;;;;6.60;4.63;;;;;;;21.82;77.00;101050.13;5035508;28;20443;-73
2021/06/17 04:58:42;;;;;;;9.33;6.00;;;;;;;21.83;76.98;101049.00;5035143;28;20552;-73
2021/06/17 05:01:08;;;;;;;7.67;5.10;;;;;;;21.88;77.13;101053.41;5034777;28;20987;-73
2021/06/17 05:03:36;;;;;;;7.43;4.77;;;;;;;21.96;77.10;101055.16;5035248;28;20451;-73
2021/06/17 05:06:03;;;;;;;6.87;4.73;;;;;;;22.04;77.36;101048.56;5035275;28;20497;-73
2021/06/17 05:11:15;;;;;;;7.33;5.13;;;;;;;22.16;76.75;101056.69;5035367;28;20449;-70
2021/06/17 05:13:43;;;;;;;9.10;5.90;;;;;;;22.22;77.53;101051.66;5035027;28;20478;-71
2021/06/17 05:16:10;;;;;;;12.63;5.23;;;;;;;22.28;77.95;101052.97;5041982;28;20455;-72
2021/06/17 05:18:36;;;;;;;6.23;4.70;;;;;;;22.33;77.93;101060.13;5035042;28;20543;-72
2021/06/17 05:21:03;;;;;;;13.37;5.73;;;;;;;22.37;77.94;101061.78;5035075;28;20447;-73
2021/06/17 05:23:30;;;;;;;7.70;6.07;;;;;;;22.41;77.81;101059.09;5034394;28;20447;-74
2021/06/17 05:25:59;;;;;;;7.43;5.17;;;;;;;22.44;77.53;101052.00;5034939;28;20443;-72
2021/06/17 05:28:28;;;;;;;7.53;5.07;;;;;;;22.48;77.62;101055.63;5035085;28;20838;-74
2021/06/17 05:30:56;;;;;;;8.23;5.50;;;;;;;22.52;77.74;101048.19;5034770;28;20967;-74
2021/06/17 05:33:22;;;;;;;6.67;4.90;;;;;;;22.55;78.25;101052.97;5034722;28;20833;-74
2021/06/17 05:35:49;;;;;;;6.53;5.57;;;;;;;22.60;77.78;101049.91;5035026;28;20439;-74
2021/06/17 05:38:17;;;;;;;8.73;5.80;;;;;;;22.65;76.83;101052.34;5034638;28;20466;-74
2021/06/17 05:40:43;;;;;;;6.43;4.90;;;;;;;22.73;76.60;101051.28;5034511;28;20486;-74
2021/06/17 05:43:10;;;;;;;8.67;5.90;;;;;;;22.78;76.41;101050.97;5034667;28;20447;-75
2021/06/17 05:45:37;;;;;;;9.00;6.37;;;;;;;22.86;76.97;101047.13;5034528;28;20533;-74
2021/06/17 05:48:04;;;;;;;8.67;6.20;;;;;;;22.92;77.05;101053.94;5034552;28;20442;-75
2021/06/17 05:50:31;;;;;;;10.70;6.13;;;;;;;23.02;76.32;101057.22;5034463;28;20776;-74
2021/06/17 05:52:57;;;;;;;7.00;4.90;;;;;;;23.10;75.51;101058.91;5034453;28;20439;-74
2021/06/17 05:55:24;;;;;;;7.90;5.30;;;;;;;23.20;74.33;101061.03;5034068;28;20490;-74
2021/06/17 05:57:50;;;;;;;6.07;5.20;;;;;;;23.26;74.18;101059.53;5034399;28;20447;-72
2021/06/17 06:00:17;;;;;;;14.30;6.77;;;;;;;23.35;73.21;101059.25;5034085;28;20471;-74
2021/06/17 06:02:45;;;;;;;11.23;5.90;;;;;;;23.46;72.69;101059.34;5034307;28;20446;-69
2021/06/17 06:05:11;;;;;;;6.13;5.53;;;;;;;23.49;72.60;101058.63;5034166;28;20439;-74
2021/06/17 06:07:39;;;;;;;7.47;5.17;;;;;;;23.51;72.23;101051.53;5033770;28;20959;-74
2021/06/17 06:10:07;;;;;;;7.80;5.77;;;;;;;23.53;72.20;101051.16;5034023;28;20473;-75
2021/06/17 06:12:33;;;;;;;6.47;5.80;;;;;;;23.60;71.99;101052.03;5033972;28;20443;-72
2021/06/17 06:15:00;;;;;;;8.00;5.70;;;;;;;23.65;72.49;101057.25;5033995;28;20498;-71
2021/06/17 06:17:26;;;;;;;7.60;6.00;;;;;;;23.72;72.05;101052.97;5033989;28;20454;-76
2021/06/17 06:19:54;;;;;;;6.73;5.13;;;;;;;23.78;71.48;101055.03;5033893;28;20467;-74
2021/06/17 06:22:21;;;;;;;6.87;5.37;;;;;;;23.82;71.61;101060.59;5033908;28;20531;-74
2021/06/17 06:24:47;;;;;;;8.90;5.83;;;;;;;23.86;71.53;101062.22;5033842;28;20439;-73
2021/06/17 06:27:14;;;;;;;8.73;6.10;;;;;;;23.99;70.92;101056.38;5033814;28;20512;-73
2021/06/17 06:29:40;;;;;;;6.90;4.90;;;;;;;24.04;71.60;101059.63;5033666;28;20463;-76
2021/06/17 06:32:09;;;;;;;8.17;5.23;;;;;;;24.10;71.18;101055.31;5033813;28;20479;-73
2021/06/17 06:34:36;;;;;;;10.33;6.40;;;;;;;24.19;69.97;101065.28;5032698;28;20485;-74
2021/06/17 06:37:04;;;;;;;9.30;5.67;;;;;;;24.30;69.63;101068.94;5033504;28;20443;-73
2021/06/17 06:39:31;;;;;;;6.20;5.00;;;;;;;24.31;70.16;101070.53;5033375;28;21007;-75
2021/06/17 06:41:57;;;;;;;6.33;5.40;;;;;;;24.37;69.34;101083.66;5033193;28;20951;-73
2021/06/17 06:44:23;;;;;;;6.60;4.80;;;;;;;24.40;69.25;101077.38;5033608;28;20439;-73
2021/06/17 06:46:53;;;;;;;6.40;5.03;;;;;;;24.48;68.06;101075.47;5033528;28;20455;-73
2021/06/17 06:49:20;;;;;;;9.40;5.33;;;;;;;24.59;68.11;101079.09;5033367;28;20525;-73
2021/06/17 06:51:46;;;;;;;5.77;5.17;;;;;;;24.68;67.50;101075.97;5033409;28;20455;-73
2021/06/17 06:54:18;;;;;;;5.23;4.60;;;;;;;24.76;66.81;101083.16;5033486;28;20487;-73
2021/06/17 06:56:44;;;;;;;6.90;4.90;;;;;;;24.90;66.81;101074.94;5033400;28;20435;-71
2021/06/17 06:59:11;;;;;;;10.90;5.90;;;;;;;24.95;68.37;101086.84;5033200;28;20475;-68
2021/06/17 07:01:37;;;;;;;8.77;6.17;;;;;;;25.01;67.37;101086.06;5032975;28;20833;-68
2021/06/17 07:04:04;;;;;;;6.43;4.80;;;;;;;25.05;67.26;101097.97;5033310;28;20439;-73
2021/06/17 07:06:31;;;;;;;6.07;5.17;;;;;;;25.11;65.82;101095.69;5033262;28;20443;-72
2021/06/17 07:08:57;;;;;;;7.33;4.97;;;;;;;25.17;66.75;101089.38;5033095;28;20459;-72
2021/06/17 07:11:25;;;;;;;10.43;5.60;;;;;;;25.33;66.34;101093.81;5033202;28;20450;-72
2021/06/17 07:13:52;;;;;;;10.10;4.57;;;;;;;25.48;65.05;101084.34;5033080;28;20450;-72
2021/06/17 07:16:19;;;;;;;5.40;4.60;;;;;;;25.57;65.42;101087.56;5036658;28;20489;-73
2021/06/17 07:18:45;;;;;;;6.90;5.43;;;;;;;25.60;65.83;101083.22;5036799;28;20463;-72
2021/06/17 07:21:13;;;;;;;6.87;5.77;;;;;;;25.65;65.48;101082.81;5033199;28;20447;-73
2021/06/17 07:23:40;;;;;;;7.43;5.30;;;;;;;25.68;65.38;101084.81;5033119;28;20447;-72
2021/06/17 07:26:06;;;;;;;5.23;4.73;;;;;;;25.77;65.85;101090.81;5033163;28;20486;-73
2021/06/17 07:28:34;;;;;;;5.33;4.83;;;;;;;25.86;63.77;101085.69;5032785;28;21014;-75
2021/06/17 07:31:01;;;;;;;5.17;4.67;;;;;;;25.95;64.00;101090.06;5032800;28;20965;-73
2021/06/17 07:33:28;;;;;;;8.00;5.50;;;;;;;26.01;64.82;101094.03;5032961;28;20445;-71
2021/06/17 07:35:54;;;;;;;6.60;5.07;;;;;;;26.06;65.27;101090.88;5032970;28;20851;-69
2021/06/17 07:38:21;;;;;;;6.00;4.60;;;;;;;26.11;64.72;101093.25;5032798;28;20451;-69
2021/06/17 07:40:47;;;;;;;6.47;5.20;;;;;;;26.20;63.99;101093.66;5032961;28;20440;-69
2021/06/17 07:43:14;;;;;;;6.57;5.63;;;;;;;26.28;64.42;101100.00;5032895;28;20446;-69
2021/06/17 07:45:41;;;;;;;6.10;4.83;;;;;;;26.36;62.28;101104.38;5034419;28;20466;-69
2021/06/17 07:48:11;;;;;;;6.67;4.87;;;;;;;26.47;60.28;101104.41;5036715;28;20447;-69
2021/06/17 07:50:38;;;;;;;7.33;5.33;;;;;;;26.47;61.29;101096.84;5036726;28;20982;-69
2021/06/17 07:53:05;;;;;;;5.47;4.73;;;;;;;26.54;62.24;101096.88;5036406;28;20971;-70
2021/06/17 07:55:31;;;;;;;6.63;5.10;;;;;;;26.61;61.62;101087.75;5036558;28;20880;-69
2021/06/17 07:57:58;;;;;;;5.57;4.83;;;;;;;26.63;61.93;101091.69;5036486;28;20822;-70
2021/06/17 08:00:29;;;;;;;5.80;4.20;;;;;;;26.70;62.23;101102.03;5037725;28;20475;-70
2021/06/17 08:02:57;;;;;;;6.53;4.73;;;;;;;26.72;61.47;101099.63;5036478;28;20927;-72
2021/06/17 08:05:23;;;;;;;5.33;4.83;;;;;;;26.76;61.71;101097.63;5036453;28;20814;-72
2021/06/17 08:07:50;;;;;;;5.70;4.23;;;;;;;26.92;60.20;101100.78;5036389;28;20443;-72
2021/06/17 08:10:16;;;;;;;5.23;4.30;;;;;;;27.10;58.92;101094.44;5036250;28;20471;-72
2021/06/17 08:12:43;;;;;;;4.53;4.10;;;;;;;27.19;58.79;101103.13;5035998;28;20462;-72
2021/06/17 08:15:09;;;;;;;6.47;5.37;;;;;;;27.24;59.22;101110.28;5036217;28;20541;-72
2021/06/17 08:17:36;;;;;;;7.43;5.00;;;;;;;27.23;57.96;101105.91;5036157;28;20447;-72
2021/06/17 08:20:08;;;;;;;5.87;4.60;;;;;;;27.29;56.92;101096.72;5036106;28;20471;-71
2021/06/17 08:22:35;;;;;;;6.07;5.07;;;;;;;27.33;57.82;101099.50;5036140;28;20431;-72
2021/06/17 08:25:01;;;;;;;5.77;4.63;;;;;;;27.41;55.21;101101.88;5036136;28;20439;-72
2021/06/17 08:27:28;;;;;;;7.90;6.37;;;;;;;27.50;58.26;101098.66;5035995;28;20439;-73
2021/06/17 08:29:54;;;;;;;8.20;4.93;;;;;;;27.62;55.97;101100.16;5036297;28;20462;-71
2021/06/17 08:32:20;;;;;;;7.27;5.60;;;;;;;27.72;56.35;101102.16;5036050;28;20443;-75
2021/06/17 08:34:47;;;;;;;5.90;5.00;;;;;;;27.85;55.50;101100.47;5035758;28;20487;-74
2021/06/17 08:37:15;;;;;;;5.83;4.93;;;;;;;27.91;55.87;101100.84;5035825;28;20454;-72
2021/06/17 08:39:41;;;;;;;7.00;4.60;;;;;;;27.97;55.73;101098.41;5035731;28;20995;-71
2021/06/17 08:42:08;;;;;;;4.53;4.13;;;;;;;28.06;54.37;101098.72;5035752;28;20443;-72
2021/06/17 08:44:35;;;;;;;6.37;4.97;;;;;;;28.25;51.78;101100.22;5035814;28;20818;-72
2021/06/17 08:47:01;;;;;;;4.27;3.87;;;;;;;28.43;52.89;101100.88;5035729;28;20450;-71
2021/06/17 08:49:28;;;;;;;5.57;4.70;;;;;;;28.57;53.71;101106.31;5035542;28;20465;-72
2021/06/17 08:51:57;;;;;;;5.17;4.67;;;;;;;28.60;53.94;101104.72;5035642;28;20489;-73
2021/06/17 08:54:26;;;;;;;8.13;3.77;;;;;;;28.71;50.37;101099.81;5034032;28;20513;-72
2021/06/17 08:56:53;;;;;;;4.47;4.07;;;;;;;28.86;49.18;101104.03;5034484;28;20443;-73
2021/06/17 08:59:20;;;;;;;4.30;3.90;;;;;;;28.98;49.96;101110.34;5035206;28;20526;-72
2021/06/17 09:01:56;;;;;;;7.27;5.17;;;;;;;28.98;51.51;101104.75;5035425;28;20443;-72
2021/06/17 09:04:26;;;;;;;4.40;4.00;;;;;;;28.99;49.26;101100.75;5035438;28;20451;-71
2021/06/17 09:07:08;;;;;;;4.80;4.10;;;;;;;29.03;50.19;101099.50;5035387;28;20493;-73
2021/06/17 09:09:38;;;;;;;4.30;3.90;;;;;;;29.06;50.44;101090.31;5035301;28;20510;-73
2021/06/17 09:12:06;;;;;;;5.83;4.10;;;;;;;29.06;51.41;101100.69;5035653;28;20442;-72
2021/06/17 09:14:32;;;;;;;5.20;4.27;;;;;;;29.11;50.78;101105.81;5035242;28;20447;-71
2021/06/17 09:17:01;;;;;;;5.03;3.80;;;;;;;29.21;49.60;101098.50;5035190;28;20826;-70
2021/06/17 09:19:42;;;;;;;6.00;4.53;;;;;;;29.39;48.61;101097.09;5040777;28;20479;-71
2021/06/17 09:22:11;;;;;;;4.80;4.07;;;;;;;29.54;47.49;101102.50;5035190;28;20477;-70
2021/06/17 09:24:42;;;;;;;4.40;3.43;;;;;;;29.60;49.10;101104.44;5035014;28;20447;-71
2021/06/17 09:27:27;;;;;;;3.90;3.47;;;;;;;29.60;50.01;101106.44;5034716;28;20901;-70
2021/06/17 09:29:56;;;;;;;5.70;4.20;;;;;;;29.59;49.91;101099.28;5034909;28;20514;-70
2021/06/17 09:32:24;;;;;;;6.33;4.50;;;;;;;29.53;49.07;101089.72;5034845;28;20438;-70
2021/06/17 09:34:51;;;;;;;4.40;4.00;;;;;;;29.51;49.07;101097.75;5034745;28;20450;-70
2021/06/17 09:37:29;;;;;;;4.07;3.67;;;;;;;29.61;49.90;101096.84;5034769;28;20447;-70
2021/06/17 09:39:57;;;;;;;3.77;3.47;;;;;;;29.65;47.92;101092.78;5034377;28;20829;-70
2021/06/17 09:42:30;;;;;;;5.00;3.70;;;;;;;29.71;48.29;101084.75;5034729;28;20443;-70
2021/06/17 09:44:58;;;;;;;4.67;4.13;;;;;;;29.87;45.92;101093.25;5034752;28;20431;-70
2021/06/17 09:47:25;;;;;;;7.33;3.70;;;;;;;29.95;48.00;101102.34;5034494;28;20439;-70
2021/06/17 09:49:54;;;;;;;3.70;3.40;;;;;;;29.90;47.96;101098.03;5034506;28;20493;-70
2021/06/17 09:52:21;;;;;;;4.80;3.63;;;;;;;30.04;46.92;101102.59;5034503;28;20501;-70
2021/06/17 09:54:49;;;;;;;4.40;3.60;;;;;;;30.08;47.61;101102.56;5034867;28;20450;-70
2021/06/17 09:57:19;;;;;;;3.83;3.40;;;;;;;30.07;47.63;101085.00;5034314;28;20538;-70
2021/06/17 09:59:49;;;;;;;3.40;3.10;;;;;;;30.25;46.89;101083.94;5034070;28;20475;-70
2021/06/17 10:02:21;;;;;;;5.50;3.87;;;;;;;30.44;45.65;101086.00;5034544;28;20447;-70
2021/06/17 10:04:47;;;;;;;4.13;3.73;;;;;;;30.45;45.98;101075.63;5034305;28;20526;-70
2021/06/17 10:07:14;;;;;;;5.97;4.30;;;;;;;30.51;45.18;101083.09;5034176;28;20446;-70
2021/06/17 10:09:41;;;;;;;3.47;2.77;;;;;;;30.55;43.99;101069.06;5033769;28;20463;-70
2021/06/17 10:12:08;;;;;;;3.83;3.33;;;;;;;30.69;43.12;101079.97;5034016;28;20469;-70
2021/06/17 10:14:37;;;;;;;3.80;3.43;;;;;;;30.93;42.29;101083.53;5034089;28;20443;-70
2021/06/17 10:17:04;;;;;;;3.13;2.83;;;;;;;31.03;43.22;101085.34;5033970;28;20489;-70
2021/06/17 10:19:32;;;;;;;3.03;2.80;;;;;;;31.16;43.46;101085.47;5033488;28;20842;-70
2021/06/17 10:21:59;;;;;;;3.33;3.03;;;;;;;31.29;41.23;101072.44;5033938;28;20454;-70
2021/06/17 10:24:28;;;;;;;5.70;2.70;;;;;;;31.39;41.57;101074.25;5033926;28;20447;-70
2021/06/17 10:26:57;;;;;;;3.23;2.93;;;;;;;31.43;42.43;101067.75;5033884;28;20446;-70
2021/06/17 10:29:35;;;;;;;3.33;2.47;;;;;;;31.56;41.03;101065.88;5033413;28;20997;-70
2021/06/17 10:32:04;;;;;;;3.90;2.90;;;;;;;31.64;42.29;101058.88;5033752;28;20913;-70
2021/06/17 10:34:55;;;;;;;3.87;2.90;;;;;;;31.72;42.10;101049.09;5033654;28;20447;-70
2021/06/17 10:37:25;;;;;;;5.57;3.07;;;;;;;31.77;42.90;101056.19;5028457;28;20491;-70
2021/06/17 10:39:54;;;;;;;3.33;3.00;;;;;;;31.84;41.34;101053.25;5033596;28;20505;-70
2021/06/17 10:42:36;;;;;;;3.10;2.50;;;;;;;31.82;41.36;101045.25;5033196;28;20893;-70
2021/06/17 10:45:06;;;;;;;4.13;2.83;;;;;;;31.93;41.19;101059.03;5033610;28;20434;-70
2021/06/17 10:47:54;;;;;;;6.37;3.10;;;;;;;32.06;39.61;101045.13;5033231;28;20455;-70
2021/06/17 10:50:24;;;;;;;3.90;3.03;;;;;;;32.27;40.11;101061.38;5033456;28;20554;-70
2021/06/17 10:52:52;;;;;;;4.10;3.20;;;;;;;32.34;40.07;101061.22;5033723;28;20478;-70
2021/06/17 10:55:20;;;;;;;3.33;3.03;;;;;;;32.38;40.08;101056.34;5033489;28;20478;-70
2021/06/17 10:57:56;;;;;;;2.83;2.60;;;;;;;32.47;40.26;101055.72;5033122;28;20944;-70
2021/06/17 11:00:44;;;;;;;2.90;2.70;;;;;;;32.55;38.91;101054.28;5033070;28;21007;-70
2021/06/17 11:03:38;;;;;;;3.80;3.40;;;;;;;32.65;38.41;101056.00;5033279;28;20435;-70
2021/06/17 11:06:05;;;;;;;3.13;2.83;;;;;;;32.89;37.85;101050.97;5033137;28;20826;-70
2021/06/17 11:08:31;;;;;;;2.53;2.33;;;;;;;33.11;39.66;101047.53;5033194;28;20852;-70
2021/06/17 11:11:01;;;;;;;3.83;2.73;;;;;;;33.29;37.64;101050.63;5032801;28;20832;-70
2021/06/17 11:13:28;;;;;;;3.17;2.80;;;;;;;33.48;38.21;101056.53;5032822;28;20501;-70
2021/06/17 11:15:56;;;;;;;3.27;2.93;;;;;;;33.65;36.96;101052.38;5033085;28;20860;-70
2021/06/17 11:19:01;;;;;;;3.07;2.73;;;;;;;34.27;38.04;101049.97;5032806;28;21035;-70
2021/06/17 11:21:54;;;;;;;3.57;2.90;;;;;;;35.26;36.90;101056.06;5046084;28;20485;-70
2021/06/17 11:24:36;;;;;;;3.27;2.70;;;;;;;36.12;34.33;101047.81;5039799;28;20443;-72
2021/06/17 11:27:23;;;;;;;2.67;2.47;;;;;;;36.38;31.80;101053.97;5039504;28;20431;-72
2021/06/17 11:29:58;;;;;;;3.93;2.13;;;;;;;37.00;32.58;101049.28;5038730;28;20471;-74
2021/06/17 11:32:29;;;;;;;4.33;2.40;;;;;;;37.79;33.61;101052.78;5039283;28;20957;-73
2021/06/17 11:34:58;;;;;;;2.03;1.80;;;;;;;37.96;31.58;101053.22;5039600;28;20439;-75